Wetterdaten: Woche 08.04.02 - 14.04.02 (KW15)
Datum Zeit Temperatur Luftfeuchte Luftdruck Regenmenge Wind Richtung Taupunkt Windchill
08.04.2002 00:00 6.8 C 45 % 1015.9 hPa 0.0 l/m 0.7 km/h (0 Bft) NO -4.3 C 6.8 C
08.04.2002 01:00 6.5 C 47 % 1015.9 hPa 0.0 l/m 0.5 km/h (0 Bft) O-SO -4.0 C 6.4 C
08.04.2002 02:00 5.9 C 51 % 1015.9 hPa 0.0 l/m 0.4 km/h (0 Bft) O-SO -3.6 C 5.9 C
08.04.2002 03:00 5.7 C 52 % 1015.9 hPa 0.0 l/m 0.0 km/h (0 Bft) N -3.3 C 5.7 C
08.04.2002 04:00 5.3 C 57 % 1015.9 hPa 0.0 l/m 0.0 km/h (0 Bft) N -2.5 C 5.3 C
08.04.2002 05:00 5.1 C 58 % 1015.0 hPa 0.0 l/m 4.1 km/h (1 Bft) SO -2.4 C 4.3 C
08.04.2002 06:00 4.7 C 63 % 1014.9 hPa 0.0 l/m 0.2 km/h (0 Bft) O-SO -1.8 C 4.7 C
08.04.2002 07:00 4.7 C 62 % 1015.1 hPa 0.0 l/m 0.4 km/h (0 Bft) O-SO -2.1 C 4.6 C
08.04.2002 08:00 5.4 C 57 % 1014.9 hPa 0.0 l/m 2.6 km/h (1 Bft) O-SO -2.5 C 5.1 C
08.04.2002 09:00 6.3 C 52 % 1014.9 hPa 0.0 l/m 3.4 km/h (1 Bft) O-SO -2.7 C 5.8 C
08.04.2002 10:00 7.9 C 47 % 1014.9 hPa 0.0 l/m 6.5 km/h (2 Bft) O -2.8 C 6.8 C
08.04.2002 11:00 9.1 C 44 % 1015.5 hPa 0.0 l/m 4.4 km/h (1 Bft) O-SO -2.5 C 8.6 C
08.04.2002 12:00 10.2 C 41 % 1015.3 hPa 0.0 l/m 5.9 km/h (2 Bft) O -2.3 C 10.1 C
08.04.2002 13:00 10.4 C 42 % 1015.5 hPa 0.0 l/m 4.5 km/h (1 Bft) N-NO -2.0 C 10.4 C
08.04.2002 14:00 9.2 C 48 % 1015.0 hPa 0.0 l/m 5.3 km/h (1 Bft) O-SO -1.4 C 8.5 C
08.04.2002 15:00 8.5 C 50 % 1014.9 hPa 0.0 l/m 7.1 km/h (2 Bft) O-SO -1.4 C 7.5 C
08.04.2002 16:00 8.9 C 50 % 1014.9 hPa 0.0 l/m 6.4 km/h (2 Bft) O-SO -1.1 C 8.1 C
08.04.2002 17:00 9.4 C 48 % 1014.9 hPa 0.0 l/m 0.2 km/h (0 Bft) O-SO -1.1 C 9.4 C
08.04.2002 18:00 9.5 C 49 % 1014.9 hPa 0.0 l/m 1.7 km/h (1 Bft) O-SO -0.7 C 9.4 C
08.04.2002 19:00 7.5 C 56 % 1014.9 hPa 0.0 l/m 0.0 km/h (0 Bft) N -0.8 C 7.5 C
08.04.2002 20:00 6.1 C 62 % 1015.7 hPa 0.0 l/m 0.0 km/h (0 Bft) N -0.6 C 6.1 C
08.04.2002 21:00 4.8 C 71 % 1015.9 hPa 0.0 l/m 0.0 km/h (0 Bft) N -0.1 C 4.8 C
08.04.2002 22:00 4.3 C 73 % 1015.9 hPa 0.0 l/m 0.0 km/h (0 Bft) N -0.0 C 4.3 C
08.04.2002 23:00 3.6 C 80 % 1015.9 hPa 0.0 l/m 0.0 km/h (0 Bft) N 0.5 C 3.6 C
09.04.2002 00:00 4.1 C 67 % 1015.9 hPa 0.0 l/m 0.3 km/h (0 Bft) N-NO -1.5 C 4.1 C
09.04.2002 01:00 3.6 C 65 % 1015.0 hPa 0.0 l/m 0.1 km/h (0 Bft) N -2.4 C 3.6 C
09.04.2002 02:00 1.6 C 81 % 1014.9 hPa 0.0 l/m 0.3 km/h (0 Bft) O-SO -1.3 C 1.6 C
09.04.2002 03:00 0.5 C 75 % 1014.4 hPa 0.0 l/m 0.3 km/h (0 Bft) N -3.4 C 0.4 C
09.04.2002 04:00 -1.2 C 84 % 1013.9 hPa 0.0 l/m 1.2 km/h (1 Bft) O-SO -3.5 C -1.4 C
09.04.2002 05:00 -1.8 C 89 % 1013.9 hPa 0.0 l/m 1.5 km/h (1 Bft) O-SO -3.4 C -2.3 C
09.04.2002 06:00 -2.5 C 91 % 1013.9 hPa 0.0 l/m 1.6 km/h (1 Bft) O-SO -3.8 C -2.9 C
09.04.2002 07:00 -1.8 C 91 % 1013.9 hPa 0.0 l/m 0.0 km/h (0 Bft) N -3.0 C -1.8 C
09.04.2002 08:00 0.1 C 84 % 1013.9 hPa 0.0 l/m 0.0 km/h (0 Bft) N -2.3 C 0.1 C
09.04.2002 09:00 3.9 C 64 % 1013.9 hPa 0.0 l/m 2.3 km/h (1 Bft) O-SO -2.5 C 3.4 C
09.04.2002 10:00 7.5 C 49 % 1013.6 hPa 0.0 l/m 4.9 km/h (1 Bft) O -2.5 C 6.9 C
09.04.2002 11:00 10.3 C 41 % 1012.8 hPa 0.0 l/m 18.4 km/h (3 Bft) O-SO -2.4 C 9.7 C
09.04.2002 12:00 11.8 C 36 % 1012.8 hPa 0.0 l/m 17.2 km/h (3 Bft) O -2.9 C 11.8 C
09.04.2002 13:00 12.5 C 34 % 1012.1 hPa 0.0 l/m 12.4 km/h (3 Bft) O -2.7 C 12.5 C
09.04.2002 14:00 12.8 C 32 % 1011.8 hPa 0.0 l/m 15.2 km/h (3 Bft) O -3.5 C 12.8 C
09.04.2002 15:00 13.1 C 31 % 1011.2 hPa 0.0 l/m 14.7 km/h (3 Bft) O-SO -3.8 C 13.1 C
09.04.2002 16:00 13.2 C 30 % 1010.8 hPa 0.0 l/m 11.3 km/h (2 Bft) O -4.2 C 13.2 C
09.04.2002 17:00 13.3 C 29 % 1010.7 hPa 0.0 l/m 6.9 km/h (2 Bft) O -4.4 C 13.3 C
09.04.2002 18:00 12.1 C 33 % 1009.7 hPa 0.0 l/m 7.4 km/h (2 Bft) O-SO -3.7 C 12.1 C
09.04.2002 19:00 10.1 C 38 % 1009.7 hPa 0.0 l/m 5.7 km/h (1 Bft) O -3.7 C 9.7 C
09.04.2002 20:00 8.8 C 39 % 1009.9 hPa 0.0 l/m 1.2 km/h (1 Bft) NO -4.5 C 8.7 C
09.04.2002 21:00 8.0 C 39 % 1010.1 hPa 0.0 l/m 1.0 km/h (0 Bft) N-NO -5.1 C 7.9 C
09.04.2002 22:00 6.9 C 38 % 1009.7 hPa 0.0 l/m 0.5 km/h (0 Bft) NO -6.4 C 6.9 C
09.04.2002 23:00 6.1 C 39 % 1009.7 hPa 0.0 l/m 0.3 km/h (0 Bft) N -6.8 C 6.1 C
10.04.2002 00:00 6.2 C 38 % 1009.7 hPa 0.0 l/m 4.6 km/h (1 Bft) O-SO -7.0 C 5.4 C
10.04.2002 01:00 5.9 C 42 % 1009.2 hPa 0.0 l/m 3.2 km/h (1 Bft) NO -6.1 C 5.3 C
10.04.2002 02:00 5.3 C 47 % 1008.7 hPa 0.0 l/m 1.6 km/h (1 Bft) N-NO -5.2 C 5.1 C
10.04.2002 03:00 5.0 C 51 % 1008.1 hPa 0.0 l/m 4.0 km/h (1 Bft) N-NO -4.3 C 4.4 C
10.04.2002 04:00 4.6 C 53 % 1007.7 hPa 0.0 l/m 4.9 km/h (1 Bft) O-NO -4.1 C 3.7 C
10.04.2002 05:00 4.1 C 57 % 1007.7 hPa 0.0 l/m 5.7 km/h (1 Bft) O-NO -3.7 C 3.0 C
10.04.2002 06:00 3.5 C 61 % 1007.7 hPa 0.0 l/m 3.5 km/h (1 Bft) NO -3.4 C 2.8 C
10.04.2002 07:00 3.4 C 60 % 1007.7 hPa 0.0 l/m 3.4 km/h (1 Bft) N-NO -3.6 C 2.8 C
10.04.2002 08:00 4.2 C 57 % 1007.7 hPa 0.0 l/m 9.4 km/h (2 Bft) NO -3.5 C 2.2 C
10.04.2002 09:00 5.4 C 55 % 1007.7 hPa 0.0 l/m 13.9 km/h (3 Bft) O -2.9 C 2.6 C
10.04.2002 10:00 6.9 C 53 % 1007.7 hPa 0.0 l/m 12.7 km/h (3 Bft) O-NO -2.1 C 4.6 C
10.04.2002 11:00 8.6 C 49 % 1007.2 hPa 0.0 l/m 9.2 km/h (2 Bft) O -1.4 C 7.2 C
10.04.2002 12:00 10.3 C 47 % 1006.6 hPa 0.0 l/m 12.0 km/h (2 Bft) O-NO -0.6 C 9.7 C
10.04.2002 13:00 11.4 C 45 % 1006.6 hPa 0.0 l/m 15.2 km/h (3 Bft) O -0.2 C 11.4 C
10.04.2002 14:00 12.8 C 43 % 1006.5 hPa 0.0 l/m 16.9 km/h (3 Bft) O-SO 0.7 C 12.8 C
10.04.2002 15:00 13.0 C 42 % 1005.6 hPa 0.0 l/m 12.4 km/h (3 Bft) O-SO 0.4 C 13.0 C
10.04.2002 16:00 13.4 C 41 % 1005.6 hPa 0.0 l/m 9.8 km/h (2 Bft) O 0.3 C 13.4 C
10.04.2002 17:00 12.9 C 42 % 1005.6 hPa 0.0 l/m 9.4 km/h (2 Bft) O-NO 0.1 C 12.9 C
10.04.2002 18:00 12.1 C 43 % 1005.5 hPa 0.0 l/m 8.5 km/h (2 Bft) O -0.0 C 12.1 C
10.04.2002 19:00 10.7 C 47 % 1005.6 hPa 0.0 l/m 8.9 km/h (2 Bft) NO -0.2 C 10.5 C
10.04.2002 20:00 8.9 C 51 % 1005.9 hPa 0.0 l/m 7.5 km/h (2 Bft) NO -0.8 C 7.9 C
10.04.2002 21:00 8.0 C 53 % 1006.6 hPa 0.0 l/m 4.9 km/h (1 Bft) N-NO -0.9 C 7.4 C
10.04.2002 22:00 7.4 C 57 % 1006.6 hPa 0.0 l/m 7.9 km/h (2 Bft) NO -0.6 C 6.1 C
10.04.2002 23:00 6.5 C 62 % 1006.6 hPa 0.0 l/m 3.0 km/h (1 Bft) NO -0.3 C 6.2 C
11.04.2002 00:00 6.0 C 65 % 1006.6 hPa 0.0 l/m 2.9 km/h (1 Bft) NO -0.1 C 5.4 C
11.04.2002 01:00 5.5 C 67 % 1006.6 hPa 0.0 l/m 2.8 km/h (1 Bft) O-NO 0.0 C 5.1 C
11.04.2002 02:00 5.1 C 70 % 1006.6 hPa 0.0 l/m 1.4 km/h (1 Bft) O -0.0 C 4.9 C
11.04.2002 03:00 4.6 C 71 % 1005.7 hPa 0.0 l/m 0.4 km/h (0 Bft) NO -0.2 C 4.6 C
11.04.2002 04:00 4.1 C 75 % 1005.6 hPa 0.0 l/m 0.6 km/h (0 Bft) NO 0.1 C 4.0 C
11.04.2002 05:00 3.5 C 78 % 1005.6 hPa 0.0 l/m 0.2 km/h (0 Bft) O-SO 0.1 C 3.5 C
11.04.2002 06:00 2.5 C 83 % 1005.6 hPa 0.0 l/m 0.5 km/h (0 Bft) O -0.0 C 2.5 C
11.04.2002 07:00 2.3 C 84 % 1005.2 hPa 0.0 l/m 1.2 km/h (1 Bft) O-SO -0.2 C 2.0 C
11.04.2002 08:00 3.2 C 77 % 1005.6 hPa 0.0 l/m 2.7 km/h (1 Bft) O-SO -0.4 C 2.6 C
11.04.2002 09:00 4.4 C 73 % 1005.6 hPa 0.0 l/m 1.8 km/h (1 Bft) O-NO 0.0 C 4.2 C
11.04.2002 10:00 6.0 C 68 % 1004.8 hPa 0.0 l/m 5.9 km/h (2 Bft) O-NO 0.6 C 4.9 C
11.04.2002 11:00 8.8 C 61 % 1004.2 hPa 0.0 l/m 12.2 km/h (2 Bft) O-SO 1.7 C 7.1 C
11.04.2002 12:00 11.3 C 55 % 1003.5 hPa 0.0 l/m 16.3 km/h (3 Bft) O-SO 2.4 C 11.3 C
11.04.2002 13:00 13.4 C 51 % 1002.5 hPa 0.0 l/m 13.8 km/h (3 Bft) O-SO 3.4 C 13.4 C
11.04.2002 14:00 14.5 C 49 % 1001.4 hPa 0.0 l/m 21.6 km/h (4 Bft) SO 3.8 C 14.5 C
11.04.2002 15:00 15.5 C 47 % 1000.2 hPa 0.0 l/m 18.3 km/h (3 Bft) O-SO 4.2 C 15.5 C
11.04.2002 16:00 16.1 C 45 % 999.4 hPa 0.0 l/m 19.3 km/h (3 Bft) O-SO 4.0 C 16.1 C
11.04.2002 17:00 15.5 C 46 % 999.3 hPa 0.0 l/m 20.8 km/h (4 Bft) SO 3.8 C 15.5 C
11.04.2002 18:00 15.2 C 47 % 998.3 hPa 0.0 l/m 8.8 km/h (2 Bft) O-SO 4.0 C 15.2 C
11.04.2002 19:00 13.9 C 50 % 998.3 hPa 0.0 l/m 1.8 km/h (1 Bft) NO 3.6 C 13.9 C
11.04.2002 20:00 12.0 C 56 % 998.3 hPa 0.0 l/m 1.3 km/h (1 Bft) O-SO 3.5 C 12.0 C
11.04.2002 21:00 10.7 C 60 % 998.3 hPa 0.0 l/m 1.3 km/h (1 Bft) O-SO 3.3 C 10.7 C
11.04.2002 22:00 9.7 C 63 % 998.3 hPa 0.0 l/m 1.0 km/h (0 Bft) O-SO 2.9 C 9.6 C
11.04.2002 23:00 8.6 C 68 % 998.3 hPa 0.0 l/m 0.2 km/h (0 Bft) O-NO 3.0 C 8.6 C
12.04.2002 00:00 8.2 C 70 % 997.4 hPa 0.0 l/m 0.4 km/h (0 Bft) O 3.0 C 8.2 C
12.04.2002 01:00 8.0 C 70 % 996.5 hPa 0.0 l/m 0.2 km/h (0 Bft) SO 2.9 C 8.0 C
12.04.2002 02:00 7.6 C 71 % 996.2 hPa 0.0 l/m 0.3 km/h (0 Bft) O-SO 2.6 C 7.5 C
12.04.2002 03:00 7.0 C 75 % 995.4 hPa 0.0 l/m 0.3 km/h (0 Bft) O-SO 2.8 C 7.0 C
12.04.2002 04:00 6.0 C 82 % 995.2 hPa 0.0 l/m 0.0 km/h (0 Bft) N 3.2 C 6.0 C
12.04.2002 05:00 5.3 C 87 % 995.2 hPa 0.0 l/m 0.0 km/h (0 Bft) O-SO 3.2 C 5.3 C
12.04.2002 06:00 4.1 C 90 % 995.2 hPa 0.0 l/m 2.0 km/h (1 Bft) O-SO 2.6 C 3.7 C
12.04.2002 07:00 4.9 C 88 % 995.2 hPa 0.0 l/m 0.2 km/h (0 Bft) O-SO 3.1 C 4.9 C
12.04.2002 08:00 6.5 C 78 % 995.2 hPa 0.0 l/m 0.3 km/h (0 Bft) W-NW 2.9 C 6.5 C
12.04.2002 09:00 7.9 C 71 % 995.2 hPa 0.0 l/m 0.2 km/h (0 Bft) W-NW 3.1 C 7.9 C
12.04.2002 10:00 9.4 C 66 % 995.1 hPa 0.0 l/m 0.9 km/h (0 Bft) N-NW 3.2 C 9.3 C
12.04.2002 11:00 11.1 C 58 % 994.2 hPa 0.0 l/m 0.8 km/h (0 Bft) W-NW 3.2 C 11.1 C
12.04.2002 12:00 12.6 C 53 % 994.2 hPa 0.0 l/m 1.4 km/h (1 Bft) NW 3.3 C 12.6 C
12.04.2002 13:00 14.1 C 51 % 993.9 hPa 0.0 l/m 4.4 km/h (1 Bft) NW 4.0 C 14.1 C
12.04.2002 14:00 15.9 C 45 % 993.3 hPa 0.0 l/m 2.9 km/h (1 Bft) NW 4.0 C 15.9 C
12.04.2002 15:00 16.0 C 45 % 993.2 hPa 0.0 l/m 4.7 km/h (1 Bft) W-NW 4.2 C 16.0 C
12.04.2002 16:00 14.7 C 49 % 993.2 hPa 0.0 l/m 15.1 km/h (3 Bft) NW 4.0 C 14.7 C
12.04.2002 17:00 13.8 C 53 % 993.2 hPa 0.0 l/m 12.6 km/h (3 Bft) NW 4.5 C 13.8 C
12.04.2002 18:00 13.1 C 59 % 993.9 hPa 0.0 l/m 1.4 km/h (1 Bft) NW 5.2 C 13.1 C
12.04.2002 19:00 12.4 C 61 % 994.2 hPa 0.0 l/m 0.8 km/h (0 Bft) NW 5.2 C 12.4 C
12.04.2002 20:00 11.2 C 75 % 994.8 hPa 0.0 l/m 0.1 km/h (0 Bft) N 6.9 C 11.2 C
12.04.2002 21:00 10.1 C 84 % 995.2 hPa 0.0 l/m 0.0 km/h (0 Bft) SO 7.6 C 10.1 C
12.04.2002 22:00 9.5 C 92 % 996.2 hPa 0.3 l/m 0.4 km/h (0 Bft) O-SO 8.2 C 9.5 C
12.04.2002 23:00 9.2 C 98 % 996.3 hPa 0.0 l/m 0.0 km/h (0 Bft) N 8.8 C 9.2 C
13.04.2002 00:00 9.1 C 100 % 996.3 hPa 0.6 l/m 0.0 km/h (0 Bft) N 9.0 C 9.1 C
13.04.2002 01:00 8.9 C 100 % 996.3 hPa 0.3 l/m 0.0 km/h (0 Bft) N 8.9 C 8.9 C
13.04.2002 02:00 8.8 C 100 % 995.8 hPa 0.0 l/m 0.0 km/h (0 Bft) N 8.8 C 8.8 C
13.04.2002 03:00 8.7 C 100 % 995.2 hPa 0.0 l/m 0.0 km/h (0 Bft) N 8.7 C 8.7 C
13.04.2002 04:00 8.7 C 100 % 995.2 hPa 0.3 l/m 0.0 km/h (0 Bft) N 8.7 C 8.7 C
13.04.2002 05:00 8.6 C 100 % 995.2 hPa 0.3 l/m 0.0 km/h (0 Bft) N 8.6 C 8.6 C
13.04.2002 06:00 8.6 C 100 % 995.2 hPa 0.3 l/m 0.0 km/h (0 Bft) N 8.6 C 8.6 C
13.04.2002 07:00 8.0 C 100 % 995.2 hPa 0.9 l/m 0.2 km/h (0 Bft) N 8.0 C 8.0 C
13.04.2002 08:00 7.9 C 100 % 995.8 hPa 1.2 l/m 0.7 km/h (0 Bft) NO 7.8 C 7.8 C
13.04.2002 09:00 8.0 C 100 % 996.3 hPa 0.0 l/m 0.1 km/h (0 Bft) N 7.9 C 8.0 C
13.04.2002 10:00 8.2 C 99 % 996.3 hPa 0.3 l/m 0.1 km/h (0 Bft) N 8.0 C 8.2 C
13.04.2002 11:00 8.6 C 97 % 996.5 hPa 0.0 l/m 0.1 km/h (0 Bft) N 8.1 C 8.6 C
13.04.2002 12:00 8.8 C 98 % 997.3 hPa 0.0 l/m 0.0 km/h (0 Bft) N 8.5 C 8.8 C
13.04.2002 13:00 9.2 C 95 % 997.3 hPa 0.0 l/m 0.1 km/h (0 Bft) N 8.4 C 9.2 C
13.04.2002 14:00 9.3 C 87 % 997.3 hPa 0.3 l/m 0.8 km/h (0 Bft) N-NW 7.2 C 9.2 C
13.04.2002 15:00 8.7 C 92 % 997.3 hPa 0.3 l/m 0.2 km/h (0 Bft) N 7.4 C 8.7 C
13.04.2002 16:00 8.7 C 96 % 997.3 hPa 2.4 l/m 0.1 km/h (0 Bft) N 8.0 C 8.7 C
13.04.2002 17:00 8.6 C 99 % 998.1 hPa 0.9 l/m 0.0 km/h (0 Bft) N 8.6 C 8.6 C
13.04.2002 18:00 8.6 C 100 % 998.3 hPa 0.9 l/m 0.0 km/h (0 Bft) N 8.6 C 8.6 C
13.04.2002 19:00 8.3 C 100 % 999.1 hPa 0.9 l/m 0.0 km/h (0 Bft) N 8.3 C 8.3 C
13.04.2002 20:00 8.0 C 100 % 1000.1 hPa 0.3 l/m 0.2 km/h (0 Bft) NW 8.0 C 8.0 C
13.04.2002 21:00 7.5 C 100 % 1001.1 hPa 1.2 l/m 0.1 km/h (0 Bft) N 7.5 C 7.5 C
13.04.2002 22:00 7.0 C 100 % 1001.5 hPa 0.9 l/m 1.0 km/h (0 Bft) NW 7.0 C 6.9 C
13.04.2002 23:00 6.7 C 100 % 1002.5 hPa 0.6 l/m 0.2 km/h (0 Bft) W-NW 6.7 C 6.7 C
14.04.2002 00:00 6.3 C 100 % 1002.5 hPa 0.6 l/m 2.2 km/h (1 Bft) NW 6.3 C 6.0 C
14.04.2002 01:00 5.9 C 100 % 1003.5 hPa 0.6 l/m 0.2 km/h (0 Bft) W-NW 5.9 C 5.9 C
14.04.2002 02:00 5.5 C 100 % 1003.5 hPa 0.3 l/m 0.7 km/h (0 Bft) W-NW 5.5 C 5.4 C
14.04.2002 03:00 5.3 C 100 % 1003.7 hPa 1.2 l/m 0.7 km/h (0 Bft) NW 5.3 C 5.2 C
14.04.2002 04:00 5.0 C 100 % 1004.5 hPa 0.9 l/m 0.7 km/h (0 Bft) W-NW 5.0 C 5.0 C
14.04.2002 05:00 4.9 C 100 % 1004.5 hPa 0.9 l/m 0.0 km/h (0 Bft) N 4.9 C 4.9 C
14.04.2002 06:00 4.8 C 100 % 1005.2 hPa 0.3 l/m 0.6 km/h (0 Bft) SW 4.8 C 4.8 C
14.04.2002 07:00 4.8 C 100 % 1005.7 hPa 0.6 l/m 0.6 km/h (0 Bft) O-SO 4.8 C 4.8 C
14.04.2002 08:00 5.1 C 100 % 1006.6 hPa 0.6 l/m 0.3 km/h (0 Bft) SO 5.1 C 5.1 C
14.04.2002 09:00 4.8 C 99 % 1006.6 hPa 0.3 l/m 12.1 km/h (2 Bft) NW 4.6 C 2.1 C
14.04.2002 10:00 4.9 C 96 % 1007.6 hPa 0.3 l/m 5.1 km/h (1 Bft) W-NW 4.3 C 3.9 C
14.04.2002 11:00 5.5 C 96 % 1007.7 hPa 0.3 l/m 4.0 km/h (1 Bft) W-NW 5.0 C 4.9 C
14.04.2002 12:00 6.6 C 91 % 1007.7 hPa 0.3 l/m 4.9 km/h (1 Bft) NW 5.2 C 5.8 C
14.04.2002 13:00 8.9 C 77 % 1007.7 hPa 0.0 l/m 9.3 km/h (2 Bft) W-NW 5.0 C 7.6 C
14.04.2002 14:00 8.3 C 72 % 1007.7 hPa 0.0 l/m 14.7 km/h (3 Bft) NW 3.5 C 6.1 C
14.04.2002 15:00 5.8 C 85 % 1008.7 hPa 0.0 l/m 12.6 km/h (3 Bft) NW 3.4 C 3.6 C
14.04.2002 16:00 6.0 C 83 % 1009.0 hPa 0.0 l/m 10.7 km/h (2 Bft) NW 3.3 C 3.9 C
14.04.2002 17:00 6.1 C 83 % 1009.7 hPa 0.0 l/m 11.3 km/h (2 Bft) W-NW 3.3 C 3.9 C
14.04.2002 18:00 5.2 C 90 % 1009.7 hPa 0.3 l/m 7.8 km/h (2 Bft) W-NW 3.7 C 3.6 C
14.04.2002 19:00 4.7 C 93 % 1010.2 hPa 0.3 l/m 17.5 km/h (3 Bft) NW 3.6 C 1.1 C
14.04.2002 20:00 3.5 C 94 % 1011.4 hPa 0.0 l/m 13.6 km/h (3 Bft) NW 2.6 C 0.5 C
14.04.2002 21:00 3.3 C 97 % 1011.8 hPa 0.0 l/m 3.1 km/h (1 Bft) NW 2.8 C 2.6 C
14.04.2002 22:00 3.2 C 95 % 1012.2 hPa 0.0 l/m 0.4 km/h (0 Bft) SO 2.5 C 3.2 C
14.04.2002 23:00 3.2 C 97 % 1012.8 hPa 0.0 l/m 2.9 km/h (1 Bft) O-SO 2.7 C 2.6 C
Min-Datum _ 09.04.02 09.04.02 12.04.02 - 08.04.02 - 09.04.02 09.04.02
_ Min-Zeit 06:34 16:25 15:00 - 00:18 - 23:17 06:04
Minimum _ -2.8 C 27 % 993.2 hPa - 0.0 km/h (0 Bft) - -7.9 C -5.0 C
Max-Datum _ 12.04.02 13.04.02 08.04.02 13.04.02 14.04.02 - 13.04.02 12.04.02
_ Max-Zeit 15:40 00:11 21:00 15:00 15:09 - 00:11 15:40
Maximum _ 16.8 C 100 % 1015.9 hPa 2.4 l/m 35.8 km/h
NW (5 Bft)
- 9.2 C 16.8 C
Durchschnitt _ 7.7 C 69 % 1005.3 hPa #21.0 l/m 4.3 km/h (1 Bft) O-SO 1.6 C 7.3 C

Durchschnitt Minimum Temp.7.0 C
Durchschnitt Maximum Temp.8.4 C
© Kaiko 2002